Terminal Aerodrome Forecast
Issued by NWS

Home | Current Version | Previous Version | Text Only | Print | Product List | Glossary On
Versions: 1 2 3 4 5 6 7 8 9 10 11 12 13 14 15 16 17 18 19 20 21 22 23 24 25 26
000
FTUS41 KPBZ 041900 AAA
TAFMGW
TAF AMD
KMGW 041947Z 0420/0518 31005KT 5SM -RA BR OVC015
     FM050000 32008KT 3SM -SN BR OVC008
     FM050600 32007KT 1SM -SN BR OVC008
     FM051200 33006KT 3SM -SN BR OVC010
     FM051500 34006KT 4SM -SN OVC015=

USA.gov is the U.S. government's official web portal to all federal, state and local government web resources and services.